sensor_id;sensor_type;location;lat;lon;timestamp;temperature;humidity
16966;DHT22;8599;47.852;12.070;2022-09-28T00:00:39;9.70;99.90
16966;DHT22;8599;47.852;12.070;2022-09-28T00:03:06;9.80;99.90
16966;DHT22;8599;47.852;12.070;2022-09-28T00:05:33;9.70;99.90
16966;DHT22;8599;47.852;12.070;2022-09-28T00:08:00;9.70;99.90
16966;DHT22;8599;47.852;12.070;2022-09-28T00:10:27;9.70;99.90
16966;DHT22;8599;47.852;12.070;2022-09-28T00:12:54;9.70;99.90
16966;DHT22;8599;47.852;12.070;2022-09-28T00:15:21;9.70;99.90
16966;DHT22;8599;47.852;12.070;2022-09-28T00:17:50;9.70;99.90
16966;DHT22;8599;47.852;12.070;2022-09-28T00:20:17;9.70;99.90
16966;DHT22;8599;47.852;12.070;2022-09-28T00:22:44;9.60;99.90
16966;DHT22;8599;47.852;12.070;2022-09-28T00:25:11;9.70;99.90
16966;DHT22;8599;47.852;12.070;2022-09-28T00:27:38;9.70;99.90
16966;DHT22;8599;47.852;12.070;2022-09-28T00:30:05;9.70;99.90
16966;DHT22;8599;47.852;12.070;2022-09-28T00:32:32;9.70;99.90
16966;DHT22;8599;47.852;12.070;2022-09-28T00:35:01;9.70;99.90
16966;DHT22;8599;47.852;12.070;2022-09-28T00:37:28;9.70;99.90
16966;DHT22;8599;47.852;12.070;2022-09-28T00:39:55;9.70;99.90
16966;DHT22;8599;47.852;12.070;2022-09-28T00:42:24;9.70;99.90
16966;DHT22;8599;47.852;12.070;2022-09-28T00:44:52;9.70;99.90
16966;DHT22;8599;47.852;12.070;2022-09-28T00:47:38;9.70;99.90
16966;DHT22;8599;47.852;12.070;2022-09-28T00:50:12;9.70;99.90
16966;DHT22;8599;47.852;12.070;2022-09-28T00:52:44;9.80;99.90
16966;DHT22;8599;47.852;12.070;2022-09-28T00:55:15;9.80;99.90
16966;DHT22;8599;47.852;12.070;2022-09-28T00:57:45;9.80;99.90
16966;DHT22;8599;47.852;12.070;2022-09-28T01:00:14;9.70;99.90
16966;DHT22;8599;47.852;12.070;2022-09-28T01:02:41;9.70;99.90
16966;DHT22;8599;47.852;12.070;2022-09-28T01:05:10;9.70;99.90
16966;DHT22;8599;47.852;12.070;2022-09-28T01:07:38;9.70;99.90
16966;DHT22;8599;47.852;12.070;2022-09-28T01:10:06;9.70;99.90
16966;DHT22;8599;47.852;12.070;2022-09-28T01:12:33;9.80;99.90
16966;DHT22;8599;47.852;12.070;2022-09-28T01:15:01;9.80;99.90
16966;DHT22;8599;47.852;12.070;2022-09-28T01:17:35;9.80;99.90
16966;DHT22;8599;47.852;12.070;2022-09-28T01:20:30;9.80;99.90
16966;DHT22;8599;47.852;12.070;2022-09-28T01:29:01;9.70;99.90
16966;DHT22;8599;47.852;12.070;2022-09-28T01:31:33;9.80;99.90
16966;DHT22;8599;47.852;12.070;2022-09-28T01:34:06;9.70;99.90
16966;DHT22;8599;47.852;12.070;2022-09-28T01:36:40;9.80;99.90
16966;DHT22;8599;47.852;12.070;2022-09-28T01:39:10;9.90;99.90
16966;DHT22;8599;47.852;12.070;2022-09-28T01:41:41;9.90;99.90
16966;DHT22;8599;47.852;12.070;2022-09-28T01:44:13;9.80;99.90
16966;DHT22;8599;47.852;12.070;2022-09-28T01:46:43;9.80;99.90
16966;DHT22;8599;47.852;12.070;2022-09-28T01:49:16;9.80;99.90
16966;DHT22;8599;47.852;12.070;2022-09-28T01:51:49;9.80;99.90
16966;DHT22;8599;47.852;12.070;2022-09-28T01:54:20;9.80;99.90
16966;DHT22;8599;47.852;12.070;2022-09-28T01:56:53;9.80;99.90
16966;DHT22;8599;47.852;12.070;2022-09-28T01:59:24;9.80;99.90
16966;DHT22;8599;47.852;12.070;2022-09-28T02:01:56;9.80;99.90
16966;DHT22;8599;47.852;12.070;2022-09-28T02:04:27;9.80;99.90
16966;DHT22;8599;47.852;12.070;2022-09-28T02:06:57;9.80;99.90
16966;DHT22;8599;47.852;12.070;2022-09-28T02:09:32;9.70;99.90
16966;DHT22;8599;47.852;12.070;2022-09-28T02:12:06;9.60;99.90
16966;DHT22;8599;47.852;12.070;2022-09-28T02:14:37;9.60;99.90
16966;DHT22;8599;47.852;12.070;2022-09-28T02:17:05;9.60;99.90
16966;DHT22;8599;47.852;12.070;2022-09-28T02:19:32;9.50;99.90
16966;DHT22;8599;47.852;12.070;2022-09-28T02:22:02;9.60;99.90
16966;DHT22;8599;47.852;12.070;2022-09-28T02:24:37;9.60;99.90
16966;DHT22;8599;47.852;12.070;2022-09-28T02:27:11;9.60;99.90
16966;DHT22;8599;47.852;12.070;2022-09-28T02:29:39;9.50;99.90
16966;DHT22;8599;47.852;12.070;2022-09-28T02:32:06;9.50;99.90
16966;DHT22;8599;47.852;12.070;2022-09-28T02:34:34;9.50;99.90
16966;DHT22;8599;47.852;12.070;2022-09-28T02:37:01;9.50;99.90
16966;DHT22;8599;47.852;12.070;2022-09-28T02:39:28;9.40;99.90
16966;DHT22;8599;47.852;12.070;2022-09-28T02:42:05;9.50;99.90
16966;DHT22;8599;47.852;12.070;2022-09-28T02:44:44;9.50;99.90
16966;DHT22;8599;47.852;12.070;2022-09-28T02:47:22;9.40;99.90
16966;DHT22;8599;47.852;12.070;2022-09-28T02:49:56;9.40;99.90
16966;DHT22;8599;47.852;12.070;2022-09-28T02:52:42;9.40;99.90
16966;DHT22;8599;47.852;12.070;2022-09-28T02:55:19;9.50;99.90
16966;DHT22;8599;47.852;12.070;2022-09-28T02:58:09;9.50;99.90
16966;DHT22;8599;47.852;12.070;2022-09-28T03:00:44;9.40;99.90
16966;DHT22;8599;47.852;12.070;2022-09-28T03:03:20;9.40;99.90
16966;DHT22;8599;47.852;12.070;2022-09-28T03:05:56;9.30;99.90
16966;DHT22;8599;47.852;12.070;2022-09-28T03:08:26;9.30;99.90
16966;DHT22;8599;47.852;12.070;2022-09-28T03:10:56;9.40;99.90
16966;DHT22;8599;47.852;12.070;2022-09-28T03:13:26;9.40;99.90
16966;DHT22;8599;47.852;12.070;2022-09-28T03:16:09;9.40;99.90
16966;DHT22;8599;47.852;12.070;2022-09-28T03:18:36;9.40;99.90
16966;DHT22;8599;47.852;12.070;2022-09-28T03:21:04;9.30;99.90
16966;DHT22;8599;47.852;12.070;2022-09-28T03:23:31;9.40;99.90
16966;DHT22;8599;47.852;12.070;2022-09-28T03:25:58;9.30;99.90
16966;DHT22;8599;47.852;12.070;2022-09-28T03:28:25;9.30;99.90
16966;DHT22;8599;47.852;12.070;2022-09-28T03:30:52;9.30;99.90
16966;DHT22;8599;47.852;12.070;2022-09-28T03:33:21;9.20;99.90
16966;DHT22;8599;47.852;12.070;2022-09-28T03:35:48;9.20;99.90
16966;DHT22;8599;47.852;12.070;2022-09-28T03:38:16;9.20;99.90
16966;DHT22;8599;47.852;12.070;2022-09-28T03:40:43;9.20;99.90
16966;DHT22;8599;47.852;12.070;2022-09-28T03:43:10;9.10;99.90
16966;DHT22;8599;47.852;12.070;2022-09-28T03:45:37;9.20;99.90
16966;DHT22;8599;47.852;12.070;2022-09-28T03:48:04;9.20;99.90
16966;DHT22;8599;47.852;12.070;2022-09-28T03:50:32;9.20;99.90
16966;DHT22;8599;47.852;12.070;2022-09-28T03:53:02;9.20;99.90
16966;DHT22;8599;47.852;12.070;2022-09-28T03:55:29;9.20;99.90
16966;DHT22;8599;47.852;12.070;2022-09-28T03:57:56;9.20;99.90
16966;DHT22;8599;47.852;12.070;2022-09-28T04:00:23;9.30;99.90
16966;DHT22;8599;47.852;12.070;2022-09-28T04:02:50;9.30;99.90
16966;DHT22;8599;47.852;12.070;2022-09-28T04:05:16;9.20;99.90
16966;DHT22;8599;47.852;12.070;2022-09-28T04:07:45;9.30;99.90
16966;DHT22;8599;47.852;12.070;2022-09-28T04:10:11;9.30;99.90
16966;DHT22;8599;47.852;12.070;2022-09-28T04:12:38;9.30;99.90
16966;DHT22;8599;47.852;12.070;2022-09-28T04:15:06;9.30;99.90
16966;DHT22;8599;47.852;12.070;2022-09-28T04:17:33;9.30;99.90
16966;DHT22;8599;47.852;12.070;2022-09-28T04:20:00;9.30;99.90
16966;DHT22;8599;47.852;12.070;2022-09-28T04:22:27;9.30;99.90
16966;DHT22;8599;47.852;12.070;2022-09-28T04:24:56;9.40;99.90
16966;DHT22;8599;47.852;12.070;2022-09-28T04:27:22;9.50;99.90
16966;DHT22;8599;47.852;12.070;2022-09-28T04:30:08;9.50;99.90
16966;DHT22;8599;47.852;12.070;2022-09-28T04:32:35;9.50;99.90
16966;DHT22;8599;47.852;12.070;2022-09-28T04:35:02;9.70;99.90
16966;DHT22;8599;47.852;12.070;2022-09-28T04:37:29;9.60;99.90
16966;DHT22;8599;47.852;12.070;2022-09-28T04:39:57;9.60;99.90
16966;DHT22;8599;47.852;12.070;2022-09-28T04:42:24;9.60;99.90
16966;DHT22;8599;47.852;12.070;2022-09-28T04:44:51;9.60;99.90
16966;DHT22;8599;47.852;12.070;2022-09-28T04:47:18;9.60;99.90
16966;DHT22;8599;47.852;12.070;2022-09-28T04:49:45;9.50;99.90
16966;DHT22;8599;47.852;12.070;2022-09-28T04:52:11;9.40;99.90
16966;DHT22;8599;47.852;12.070;2022-09-28T04:54:38;9.50;99.90
16966;DHT22;8599;47.852;12.070;2022-09-28T04:57:06;9.50;99.90
16966;DHT22;8599;47.852;12.070;2022-09-28T04:59:33;9.60;99.90
16966;DHT22;8599;47.852;12.070;2022-09-28T05:02:02;9.60;99.90
16966;DHT22;8599;47.852;12.070;2022-09-28T05:04:29;9.50;99.90
16966;DHT22;8599;47.852;12.070;2022-09-28T05:06:56;9.50;99.90
16966;DHT22;8599;47.852;12.070;2022-09-28T05:09:23;9.80;99.90
16966;DHT22;8599;47.852;12.070;2022-09-28T05:11:50;9.70;99.90
16966;DHT22;8599;47.852;12.070;2022-09-28T05:14:19;9.50;99.90
16966;DHT22;8599;47.852;12.070;2022-09-28T05:16:47;9.50;99.90
16966;DHT22;8599;47.852;12.070;2022-09-28T05:19:14;9.50;99.90
16966;DHT22;8599;47.852;12.070;2022-09-28T05:21:43;9.60;99.90
16966;DHT22;8599;47.852;12.070;2022-09-28T05:24:10;9.40;99.90
16966;DHT22;8599;47.852;12.070;2022-09-28T05:26:37;9.40;99.90
16966;DHT22;8599;47.852;12.070;2022-09-28T05:29:03;9.50;99.90
16966;DHT22;8599;47.852;12.070;2022-09-28T05:31:32;9.40;99.90
16966;DHT22;8599;47.852;12.070;2022-09-28T05:33:58;9.30;99.90
16966;DHT22;8599;47.852;12.070;2022-09-28T05:36:25;9.20;99.90
16966;DHT22;8599;47.852;12.070;2022-09-28T05:38:52;9.20;99.90
16966;DHT22;8599;47.852;12.070;2022-09-28T05:41:19;9.30;99.90
16966;DHT22;8599;47.852;12.070;2022-09-28T05:43:46;9.30;99.90
16966;DHT22;8599;47.852;12.070;2022-09-28T05:46:12;9.30;99.90
16966;DHT22;8599;47.852;12.070;2022-09-28T05:48:41;9.30;99.90
16966;DHT22;8599;47.852;12.070;2022-09-28T05:51:08;9.30;99.90
16966;DHT22;8599;47.852;12.070;2022-09-28T05:53:35;9.30;99.90
16966;DHT22;8599;47.852;12.070;2022-09-28T05:56:02;9.30;99.90
16966;DHT22;8599;47.852;12.070;2022-09-28T05:58:29;9.40;99.90
16966;DHT22;8599;47.852;12.070;2022-09-28T06:00:56;9.40;99.90
16966;DHT22;8599;47.852;12.070;2022-09-28T06:03:24;9.40;99.90
16966;DHT22;8599;47.852;12.070;2022-09-28T06:05:53;9.40;99.90
16966;DHT22;8599;47.852;12.070;2022-09-28T06:08:20;9.40;99.90
16966;DHT22;8599;47.852;12.070;2022-09-28T06:10:46;9.40;99.90
16966;DHT22;8599;47.852;12.070;2022-09-28T06:13:13;9.50;99.90
16966;DHT22;8599;47.852;12.070;2022-09-28T06:15:41;9.50;99.90
16966;DHT22;8599;47.852;12.070;2022-09-28T06:18:10;9.40;99.90
16966;DHT22;8599;47.852;12.070;2022-09-28T06:20:39;9.40;99.90
16966;DHT22;8599;47.852;12.070;2022-09-28T06:23:08;9.40;99.90
16966;DHT22;8599;47.852;12.070;2022-09-28T06:25:36;9.50;99.90
16966;DHT22;8599;47.852;12.070;2022-09-28T06:28:05;9.40;99.90
16966;DHT22;8599;47.852;12.070;2022-09-28T06:30:33;9.50;99.90
16966;DHT22;8599;47.852;12.070;2022-09-28T06:33:05;9.50;99.90
16966;DHT22;8599;47.852;12.070;2022-09-28T06:35:33;9.50;99.90
16966;DHT22;8599;47.852;12.070;2022-09-28T06:38:00;9.50;99.90
16966;DHT22;8599;47.852;12.070;2022-09-28T06:40:29;9.50;99.90
16966;DHT22;8599;47.852;12.070;2022-09-28T06:42:57;9.50;99.90
16966;DHT22;8599;47.852;12.070;2022-09-28T06:45:24;9.40;99.90
16966;DHT22;8599;47.852;12.070;2022-09-28T06:47:53;9.50;99.90
16966;DHT22;8599;47.852;12.070;2022-09-28T06:50:21;9.60;99.90
16966;DHT22;8599;47.852;12.070;2022-09-28T06:52:50;9.60;99.90
16966;DHT22;8599;47.852;12.070;2022-09-28T06:55:17;9.60;99.90
16966;DHT22;8599;47.852;12.070;2022-09-28T06:57:45;9.60;99.90
16966;DHT22;8599;47.852;12.070;2022-09-28T07:00:13;9.60;99.90
16966;DHT22;8599;47.852;12.070;2022-09-28T07:02:40;9.60;99.90
16966;DHT22;8599;47.852;12.070;2022-09-28T07:05:10;9.60;99.90
16966;DHT22;8599;47.852;12.070;2022-09-28T07:07:38;9.60;99.90
16966;DHT22;8599;47.852;12.070;2022-09-28T07:10:08;9.60;99.90
16966;DHT22;8599;47.852;12.070;2022-09-28T07:12:35;9.60;99.90
16966;DHT22;8599;47.852;12.070;2022-09-28T07:15:07;9.60;99.90
16966;DHT22;8599;47.852;12.070;2022-09-28T07:17:34;9.70;99.90
16966;DHT22;8599;47.852;12.070;2022-09-28T07:20:01;9.60;99.90
16966;DHT22;8599;47.852;12.070;2022-09-28T07:22:29;9.70;99.90
16966;DHT22;8599;47.852;12.070;2022-09-28T07:24:56;9.70;99.90
16966;DHT22;8599;47.852;12.070;2022-09-28T07:27:23;9.70;99.90
16966;DHT22;8599;47.852;12.070;2022-09-28T07:29:50;9.80;99.90
16966;DHT22;8599;47.852;12.070;2022-09-28T07:32:19;9.80;99.90
16966;DHT22;8599;47.852;12.070;2022-09-28T07:34:45;9.80;99.90
16966;DHT22;8599;47.852;12.070;2022-09-28T07:37:13;9.90;99.90
16966;DHT22;8599;47.852;12.070;2022-09-28T07:39:40;9.90;99.90
16966;DHT22;8599;47.852;12.070;2022-09-28T07:42:25;9.90;99.90
16966;DHT22;8599;47.852;12.070;2022-09-28T07:44:54;9.90;99.90
16966;DHT22;8599;47.852;12.070;2022-09-28T07:47:23;9.90;99.90
16966;DHT22;8599;47.852;12.070;2022-09-28T07:49:51;9.90;99.90
16966;DHT22;8599;47.852;12.070;2022-09-28T07:52:19;9.90;99.90
16966;DHT22;8599;47.852;12.070;2022-09-28T07:54:50;9.90;99.90
16966;DHT22;8599;47.852;12.070;2022-09-28T07:57:17;9.90;99.90
16966;DHT22;8599;47.852;12.070;2022-09-28T07:59:44;9.90;99.90
16966;DHT22;8599;47.852;12.070;2022-09-28T08:02:12;9.90;99.90
16966;DHT22;8599;47.852;12.070;2022-09-28T08:04:40;9.90;99.90
16966;DHT22;8599;47.852;12.070;2022-09-28T08:07:10;9.80;99.90
16966;DHT22;8599;47.852;12.070;2022-09-28T08:09:38;9.80;99.90
16966;DHT22;8599;47.852;12.070;2022-09-28T08:12:05;9.70;99.90
16966;DHT22;8599;47.852;12.070;2022-09-28T08:14:32;9.70;99.90
16966;DHT22;8599;47.852;12.070;2022-09-28T08:16:59;9.70;99.90
16966;DHT22;8599;47.852;12.070;2022-09-28T08:19:26;9.70;99.90
16966;DHT22;8599;47.852;12.070;2022-09-28T08:22:16;9.70;99.90
16966;DHT22;8599;47.852;12.070;2022-09-28T08:24:43;9.70;99.90
16966;DHT22;8599;47.852;12.070;2022-09-28T08:27:10;9.80;99.90
16966;DHT22;8599;47.852;12.070;2022-09-28T08:29:37;9.80;99.90
16966;DHT22;8599;47.852;12.070;2022-09-28T08:32:05;9.90;99.90
16966;DHT22;8599;47.852;12.070;2022-09-28T08:34:33;9.90;99.90
16966;DHT22;8599;47.852;12.070;2022-09-28T08:37:00;9.90;99.90
16966;DHT22;8599;47.852;12.070;2022-09-28T08:39:28;9.90;99.90
16966;DHT22;8599;47.852;12.070;2022-09-28T08:42:05;10.00;99.90
16966;DHT22;8599;47.852;12.070;2022-09-28T08:44:39;10.00;99.90
16966;DHT22;8599;47.852;12.070;2022-09-28T08:47:14;10.00;99.90
16966;DHT22;8599;47.852;12.070;2022-09-28T08:49:56;10.10;99.90
16966;DHT22;8599;47.852;12.070;2022-09-28T08:52:29;10.10;99.90
16966;DHT22;8599;47.852;12.070;2022-09-28T08:55:02;10.00;99.90
16966;DHT22;8599;47.852;12.070;2022-09-28T08:57:34;10.00;99.90
16966;DHT22;8599;47.852;12.070;2022-09-28T09:00:04;10.10;99.90
16966;DHT22;8599;47.852;12.070;2022-09-28T09:02:33;10.10;99.90
16966;DHT22;8599;47.852;12.070;2022-09-28T09:05:03;10.20;99.90
16966;DHT22;8599;47.852;12.070;2022-09-28T09:08:06;10.30;99.90
16966;DHT22;8599;47.852;12.070;2022-09-28T09:10:48;10.30;99.90
16966;DHT22;8599;47.852;12.070;2022-09-28T09:13:38;10.30;99.90
16966;DHT22;8599;47.852;12.070;2022-09-28T09:16:18;10.30;99.90
16966;DHT22;8599;47.852;12.070;2022-09-28T09:18:50;10.30;99.90
16966;DHT22;8599;47.852;12.070;2022-09-28T09:21:32;10.40;99.90
16966;DHT22;8599;47.852;12.070;2022-09-28T09:24:16;10.50;99.90
16966;DHT22;8599;47.852;12.070;2022-09-28T09:26:52;10.60;99.90
16966;DHT22;8599;47.852;12.070;2022-09-28T09:29:30;10.60;99.90
16966;DHT22;8599;47.852;12.070;2022-09-28T09:32:25;10.50;99.90
16966;DHT22;8599;47.852;12.070;2022-09-28T09:38:19;10.60;99.90
16966;DHT22;8599;47.852;12.070;2022-09-28T09:40:58;10.60;99.90
16966;DHT22;8599;47.852;12.070;2022-09-28T09:43:42;10.70;99.90
16966;DHT22;8599;47.852;12.070;2022-09-28T09:46:16;10.70;99.90
16966;DHT22;8599;47.852;12.070;2022-09-28T09:48:49;10.70;99.90
16966;DHT22;8599;47.852;12.070;2022-09-28T09:51:23;10.80;99.90
16966;DHT22;8599;47.852;12.070;2022-09-28T09:53:55;10.80;99.90
16966;DHT22;8599;47.852;12.070;2022-09-28T09:56:30;10.90;99.90
16966;DHT22;8599;47.852;12.070;2022-09-28T09:59:05;10.90;99.90
16966;DHT22;8599;47.852;12.070;2022-09-28T10:01:35;11.00;99.90
16966;DHT22;8599;47.852;12.070;2022-09-28T10:04:09;11.00;99.90
16966;DHT22;8599;47.852;12.070;2022-09-28T10:06:41;11.00;99.90
16966;DHT22;8599;47.852;12.070;2022-09-28T10:09:12;11.10;99.90
16966;DHT22;8599;47.852;12.070;2022-09-28T10:11:42;11.20;99.90
16966;DHT22;8599;47.852;12.070;2022-09-28T10:14:13;11.20;99.90
16966;DHT22;8599;47.852;12.070;2022-09-28T10:16:41;11.30;99.90
16966;DHT22;8599;47.852;12.070;2022-09-28T10:19:10;11.40;99.90
16966;DHT22;8599;47.852;12.070;2022-09-28T10:21:38;11.60;99.90
16966;DHT22;8599;47.852;12.070;2022-09-28T10:24:14;11.70;99.90
16966;DHT22;8599;47.852;12.070;2022-09-28T10:26:45;11.80;99.90
16966;DHT22;8599;47.852;12.070;2022-09-28T10:29:16;11.80;99.90
16966;DHT22;8599;47.852;12.070;2022-09-28T10:31:46;11.90;99.90
16966;DHT22;8599;47.852;12.070;2022-09-28T10:34:15;12.00;99.90
16966;DHT22;8599;47.852;12.070;2022-09-28T10:36:49;12.10;99.90
16966;DHT22;8599;47.852;12.070;2022-09-28T10:39:27;12.10;99.90
16966;DHT22;8599;47.852;12.070;2022-09-28T10:41:55;12.10;99.90
16966;DHT22;8599;47.852;12.070;2022-09-28T10:44:26;12.20;99.90
16966;DHT22;8599;47.852;12.070;2022-09-28T10:46:57;12.20;99.90
16966;DHT22;8599;47.852;12.070;2022-09-28T10:49:24;12.30;99.90
16966;DHT22;8599;47.852;12.070;2022-09-28T10:51:54;12.40;99.90
16966;DHT22;8599;47.852;12.070;2022-09-28T10:54:23;12.40;99.90
16966;DHT22;8599;47.852;12.070;2022-09-28T10:56:51;12.40;99.90
16966;DHT22;8599;47.852;12.070;2022-09-28T10:59:37;12.40;99.90
16966;DHT22;8599;47.852;12.070;2022-09-28T11:02:21;12.60;99.90
16966;DHT22;8599;47.852;12.070;2022-09-28T11:04:53;12.50;99.90
16966;DHT22;8599;47.852;12.070;2022-09-28T11:07:22;12.50;99.90
16966;DHT22;8599;47.852;12.070;2022-09-28T11:09:51;12.50;99.90
16966;DHT22;8599;47.852;12.070;2022-09-28T11:12:20;12.70;99.90
16966;DHT22;8599;47.852;12.070;2022-09-28T11:14:55;12.70;99.90
16966;DHT22;8599;47.852;12.070;2022-09-28T11:17:27;12.80;99.90
16966;DHT22;8599;47.852;12.070;2022-09-28T11:19:56;12.70;99.90
16966;DHT22;8599;47.852;12.070;2022-09-28T11:22:26;12.70;99.90
16966;DHT22;8599;47.852;12.070;2022-09-28T11:25:17;12.80;99.90
16966;DHT22;8599;47.852;12.070;2022-09-28T11:27:55;12.90;99.90
16966;DHT22;8599;47.852;12.070;2022-09-28T11:30:26;13.00;99.90
16966;DHT22;8599;47.852;12.070;2022-09-28T11:32:56;13.00;99.90
16966;DHT22;8599;47.852;12.070;2022-09-28T11:35:34;12.90;99.90
16966;DHT22;8599;47.852;12.070;2022-09-28T11:38:23;12.70;99.90
16966;DHT22;8599;47.852;12.070;2022-09-28T11:41:00;12.60;99.90
16966;DHT22;8599;47.852;12.070;2022-09-28T11:43:46;12.60;99.90
16966;DHT22;8599;47.852;12.070;2022-09-28T11:46:22;12.50;99.90
16966;DHT22;8599;47.852;12.070;2022-09-28T11:48:55;12.30;99.90
16966;DHT22;8599;47.852;12.070;2022-09-28T11:51:27;11.80;99.90
16966;DHT22;8599;47.852;12.070;2022-09-28T11:53:58;11.50;99.90
16966;DHT22;8599;47.852;12.070;2022-09-28T11:56:32;11.40;99.90
16966;DHT22;8599;47.852;12.070;2022-09-28T11:59:09;11.30;99.90
16966;DHT22;8599;47.852;12.070;2022-09-28T12:01:41;11.30;99.90
16966;DHT22;8599;47.852;12.070;2022-09-28T12:04:12;11.20;99.90
16966;DHT22;8599;47.852;12.070;2022-09-28T12:06:47;11.20;99.90
16966;DHT22;8599;47.852;12.070;2022-09-28T12:09:20;11.10;99.90
16966;DHT22;8599;47.852;12.070;2022-09-28T12:11:50;11.10;99.90
16966;DHT22;8599;47.852;12.070;2022-09-28T12:14:23;11.20;99.90
16966;DHT22;8599;47.852;12.070;2022-09-28T12:16:57;11.30;99.90
16966;DHT22;8599;47.852;12.070;2022-09-28T12:19:29;11.30;99.90
16966;DHT22;8599;47.852;12.070;2022-09-28T12:22:01;11.40;99.90
16966;DHT22;8599;47.852;12.070;2022-09-28T12:24:31;11.40;99.90
16966;DHT22;8599;47.852;12.070;2022-09-28T12:27:03;11.40;99.90
16966;DHT22;8599;47.852;12.070;2022-09-28T12:29:36;11.50;99.90
16966;DHT22;8599;47.852;12.070;2022-09-28T12:32:13;11.50;99.90
16966;DHT22;8599;47.852;12.070;2022-09-28T12:34:43;11.50;99.90
16966;DHT22;8599;47.852;12.070;2022-09-28T12:37:23;11.60;99.90
16966;DHT22;8599;47.852;12.070;2022-09-28T12:42:54;11.60;99.90
16966;DHT22;8599;47.852;12.070;2022-09-28T12:45:35;11.50;99.90
16966;DHT22;8599;47.852;12.070;2022-09-28T12:51:09;11.50;99.90
16966;DHT22;8599;47.852;12.070;2022-09-28T12:54:00;11.50;99.90
16966;DHT22;8599;47.852;12.070;2022-09-28T12:56:39;11.50;99.90
16966;DHT22;8599;47.852;12.070;2022-09-28T12:59:16;11.50;99.90
16966;DHT22;8599;47.852;12.070;2022-09-28T13:02:13;11.50;99.90
16966;DHT22;8599;47.852;12.070;2022-09-28T13:05:00;11.50;99.90
16966;DHT22;8599;47.852;12.070;2022-09-28T13:07:37;11.60;99.90
16966;DHT22;8599;47.852;12.070;2022-09-28T13:10:19;11.50;99.90
16966;DHT22;8599;47.852;12.070;2022-09-28T13:13:00;11.50;99.90
16966;DHT22;8599;47.852;12.070;2022-09-28T13:15:40;11.50;99.90
16966;DHT22;8599;47.852;12.070;2022-09-28T13:18:18;11.60;99.90
16966;DHT22;8599;47.852;12.070;2022-09-28T13:21:01;11.60;99.90
16966;DHT22;8599;47.852;12.070;2022-09-28T13:23:33;11.70;99.90
16966;DHT22;8599;47.852;12.070;2022-09-28T13:26:08;11.80;99.90
16966;DHT22;8599;47.852;12.070;2022-09-28T13:28:39;11.70;99.90
16966;DHT22;8599;47.852;12.070;2022-09-28T13:31:08;11.80;99.90
16966;DHT22;8599;47.852;12.070;2022-09-28T13:33:38;11.80;99.90
16966;DHT22;8599;47.852;12.070;2022-09-28T13:36:38;11.80;99.90
16966;DHT22;8599;47.852;12.070;2022-09-28T13:39:45;11.80;99.90
16966;DHT22;8599;47.852;12.070;2022-09-28T13:45:27;11.90;99.90
16966;DHT22;8599;47.852;12.070;2022-09-28T13:48:09;11.90;99.90
16966;DHT22;8599;47.852;12.070;2022-09-28T13:50:47;12.00;99.90
16966;DHT22;8599;47.852;12.070;2022-09-28T13:53:26;11.90;99.90
16966;DHT22;8599;47.852;12.070;2022-09-28T13:56:03;11.90;99.90
16966;DHT22;8599;47.852;12.070;2022-09-28T13:58:41;11.80;99.90
16966;DHT22;8599;47.852;12.070;2022-09-28T14:01:11;11.70;99.90
16966;DHT22;8599;47.852;12.070;2022-09-28T14:03:53;11.70;99.90
16966;DHT22;8599;47.852;12.070;2022-09-28T14:06:22;11.70;99.90
16966;DHT22;8599;47.852;12.070;2022-09-28T14:09:26;11.70;99.90
16966;DHT22;8599;47.852;12.070;2022-09-28T14:12:27;11.70;99.90
16966;DHT22;8599;47.852;12.070;2022-09-28T14:14:54;11.80;99.90
16966;DHT22;8599;47.852;12.070;2022-09-28T14:17:53;11.90;99.90
16966;DHT22;8599;47.852;12.070;2022-09-28T14:20:25;11.90;99.90
16966;DHT22;8599;47.852;12.070;2022-09-28T14:23:17;12.00;99.90
16966;DHT22;8599;47.852;12.070;2022-09-28T14:26:14;12.00;99.90
16966;DHT22;8599;47.852;12.070;2022-09-28T14:28:53;11.90;99.90
16966;DHT22;8599;47.852;12.070;2022-09-28T14:31:24;12.10;99.90
16966;DHT22;8599;47.852;12.070;2022-09-28T14:33:54;12.00;99.90
16966;DHT22;8599;47.852;12.070;2022-09-28T14:36:24;12.00;99.90
16966;DHT22;8599;47.852;12.070;2022-09-28T14:39:20;12.00;99.90
16966;DHT22;8599;47.852;12.070;2022-09-28T14:42:12;11.90;99.90
16966;DHT22;8599;47.852;12.070;2022-09-28T14:48:18;11.90;99.90
16966;DHT22;8599;47.852;12.070;2022-09-28T14:50:46;11.80;99.90
16966;DHT22;8599;47.852;12.070;2022-09-28T14:53:18;11.80;99.90
16966;DHT22;8599;47.852;12.070;2022-09-28T14:55:47;11.80;99.90
16966;DHT22;8599;47.852;12.070;2022-09-28T14:58:19;11.80;99.90
16966;DHT22;8599;47.852;12.070;2022-09-28T15:00:50;11.70;99.90
16966;DHT22;8599;47.852;12.070;2022-09-28T15:03:19;11.70;99.90
16966;DHT22;8599;47.852;12.070;2022-09-28T15:05:47;11.60;99.90
16966;DHT22;8599;47.852;12.070;2022-09-28T15:08:18;11.60;99.90
16966;DHT22;8599;47.852;12.070;2022-09-28T15:10:46;11.60;99.90
16966;DHT22;8599;47.852;12.070;2022-09-28T15:13:19;11.60;99.90
16966;DHT22;8599;47.852;12.070;2022-09-28T15:15:48;11.60;99.90
16966;DHT22;8599;47.852;12.070;2022-09-28T15:21:14;11.50;99.90
16966;DHT22;8599;47.852;12.070;2022-09-28T15:23:42;11.50;99.90
16966;DHT22;8599;47.852;12.070;2022-09-28T15:26:21;11.50;99.90
16966;DHT22;8599;47.852;12.070;2022-09-28T15:28:50;11.40;99.90
16966;DHT22;8599;47.852;12.070;2022-09-28T15:31:18;11.40;99.90
16966;DHT22;8599;47.852;12.070;2022-09-28T15:33:45;11.40;99.90
16966;DHT22;8599;47.852;12.070;2022-09-28T15:36:30;11.40;99.90
16966;DHT22;8599;47.852;12.070;2022-09-28T15:39:03;11.50;99.90
16966;DHT22;8599;47.852;12.070;2022-09-28T15:41:31;11.40;99.90
16966;DHT22;8599;47.852;12.070;2022-09-28T15:47:11;10.80;99.90
16966;DHT22;8599;47.852;12.070;2022-09-28T15:49:42;10.60;99.90
16966;DHT22;8599;47.852;12.070;2022-09-28T15:52:25;10.50;99.90
16966;DHT22;8599;47.852;12.070;2022-09-28T15:54:53;10.40;99.90
16966;DHT22;8599;47.852;12.070;2022-09-28T15:57:32;10.40;99.90
16966;DHT22;8599;47.852;12.070;2022-09-28T16:00:04;10.30;99.90
16966;DHT22;8599;47.852;12.070;2022-09-28T16:02:32;10.30;99.90
16966;DHT22;8599;47.852;12.070;2022-09-28T16:05:00;10.20;99.90
16966;DHT22;8599;47.852;12.070;2022-09-28T16:07:33;10.20;99.90
16966;DHT22;8599;47.852;12.070;2022-09-28T16:10:27;10.10;99.90
16966;DHT22;8599;47.852;12.070;2022-09-28T16:13:08;10.20;99.90
16966;DHT22;8599;47.852;12.070;2022-09-28T16:15:41;10.20;99.90
16966;DHT22;8599;47.852;12.070;2022-09-28T16:18:16;10.10;99.90
16966;DHT22;8599;47.852;12.070;2022-09-28T16:20:45;10.10;99.90
16966;DHT22;8599;47.852;12.070;2022-09-28T16:23:19;9.90;99.90
16966;DHT22;8599;47.852;12.070;2022-09-28T16:25:49;9.90;99.90
16966;DHT22;8599;47.852;12.070;2022-09-28T16:28:46;10.00;99.90
16966;DHT22;8599;47.852;12.070;2022-09-28T16:31:27;10.00;99.90
16966;DHT22;8599;47.852;12.070;2022-09-28T16:33:56;10.00;99.90
16966;DHT22;8599;47.852;12.070;2022-09-28T16:36:26;10.00;99.90
16966;DHT22;8599;47.852;12.070;2022-09-28T16:38:55;9.90;99.90